sensor_id;sensor_type;location;lat;lon;timestamp;P1;durP1;ratioP1;P2;durP2;ratioP2
579;SDS011;276;48.392;9.950;2023-05-10T00:00:00;1.97;;;1.67;;
579;SDS011;276;48.392;9.950;2023-05-10T00:02:25;1.63;;;1.53;;
579;SDS011;276;48.392;9.950;2023-05-10T00:04:51;1.50;;;1.40;;
579;SDS011;276;48.392;9.950;2023-05-10T00:07:17;2.00;;;1.90;;
579;SDS011;276;48.392;9.950;2023-05-10T00:09:43;2.10;;;1.83;;
579;SDS011;276;48.392;9.950;2023-05-10T00:12:09;3.63;;;1.77;;
579;SDS011;276;48.392;9.950;2023-05-10T00:14:37;2.13;;;2.03;;
579;SDS011;276;48.392;9.950;2023-05-10T00:17:02;2.30;;;2.10;;
579;SDS011;276;48.392;9.950;2023-05-10T00:19:30;2.70;;;2.60;;
579;SDS011;276;48.392;9.950;2023-05-10T00:21:56;2.37;;;2.20;;
579;SDS011;276;48.392;9.950;2023-05-10T00:24:22;2.30;;;2.10;;
579;SDS011;276;48.392;9.950;2023-05-10T00:26:47;2.90;;;2.60;;
579;SDS011;276;48.392;9.950;2023-05-10T00:29:13;2.90;;;2.70;;
579;SDS011;276;48.392;9.950;2023-05-10T00:31:40;2.43;;;2.33;;
579;SDS011;276;48.392;9.950;2023-05-10T00:34:06;2.63;;;2.43;;
579;SDS011;276;48.392;9.950;2023-05-10T00:36:32;2.40;;;2.20;;
579;SDS011;276;48.392;9.950;2023-05-10T00:38:57;3.20;;;2.97;;
579;SDS011;276;48.392;9.950;2023-05-10T00:41:28;2.33;;;2.23;;
579;SDS011;276;48.392;9.950;2023-05-10T00:43:56;2.33;;;2.23;;
579;SDS011;276;48.392;9.950;2023-05-10T00:46:22;2.17;;;2.03;;
579;SDS011;276;48.392;9.950;2023-05-10T00:48:48;1.90;;;1.80;;
579;SDS011;276;48.392;9.950;2023-05-10T00:51:14;2.10;;;2.00;;
579;SDS011;276;48.392;9.950;2023-05-10T00:53:42;2.03;;;1.93;;
579;SDS011;276;48.392;9.950;2023-05-10T00:56:11;2.80;;;2.10;;
579;SDS011;276;48.392;9.950;2023-05-10T00:58:42;2.20;;;2.10;;
579;SDS011;276;48.392;9.950;2023-05-10T01:01:07;2.37;;;2.27;;
579;SDS011;276;48.392;9.950;2023-05-10T01:03:34;2.50;;;2.33;;
579;SDS011;276;48.392;9.950;2023-05-10T01:06:03;2.10;;;2.00;;
579;SDS011;276;48.392;9.950;2023-05-10T01:08:29;1.93;;;1.83;;
579;SDS011;276;48.392;9.950;2023-05-10T01:10:54;2.80;;;2.60;;
579;SDS011;276;48.392;9.950;2023-05-10T01:13:54;3.43;;;3.27;;
579;SDS011;276;48.392;9.950;2023-05-10T01:16:17;2.87;;;2.77;;
579;SDS011;276;48.392;9.950;2023-05-10T01:18:43;2.63;;;2.43;;
579;SDS011;276;48.392;9.950;2023-05-10T01:38:57;2.00;;;1.90;;
579;SDS011;276;48.392;9.950;2023-05-10T01:43:57;2.03;;;1.93;;
579;SDS011;276;48.392;9.950;2023-05-10T01:46:36;1.77;;;1.67;;
579;SDS011;276;48.392;9.950;2023-05-10T01:49:08;1.60;;;1.50;;
579;SDS011;276;48.392;9.950;2023-05-10T01:51:47;1.70;;;1.60;;
579;SDS011;276;48.392;9.950;2023-05-10T01:54:20;1.83;;;1.17;;
579;SDS011;276;48.392;9.950;2023-05-10T01:56:50;1.07;;;1.07;;
579;SDS011;276;48.392;9.950;2023-05-10T01:59:31;3.33;;;1.17;;
579;SDS011;276;48.392;9.950;2023-05-10T02:02:06;1.00;;;1.00;;
579;SDS011;276;48.392;9.950;2023-05-10T02:04:33;0.83;;;0.83;;
579;SDS011;276;48.392;9.950;2023-05-10T02:07:02;0.80;;;0.80;;
579;SDS011;276;48.392;9.950;2023-05-10T02:09:32;1.23;;;0.70;;
579;SDS011;276;48.392;9.950;2023-05-10T02:12:02;0.60;;;0.60;;
579;SDS011;276;48.392;9.950;2023-05-10T02:14:34;0.53;;;0.50;;
579;SDS011;276;48.392;9.950;2023-05-10T02:17:02;0.60;;;0.60;;
579;SDS011;276;48.392;9.950;2023-05-10T02:19:31;0.50;;;0.40;;
579;SDS011;276;48.392;9.950;2023-05-10T02:21:58;0.83;;;0.73;;
579;SDS011;276;48.392;9.950;2023-05-10T02:24:28;1.50;;;0.70;;
579;SDS011;276;48.392;9.950;2023-05-10T02:26:54;0.70;;;0.60;;
579;SDS011;276;48.392;9.950;2023-05-10T02:29:25;0.60;;;0.60;;
579;SDS011;276;48.392;9.950;2023-05-10T02:31:53;1.40;;;0.80;;
579;SDS011;276;48.392;9.950;2023-05-10T02:34:24;0.50;;;0.40;;
579;SDS011;276;48.392;9.950;2023-05-10T02:36:51;0.40;;;0.40;;
579;SDS011;276;48.392;9.950;2023-05-10T02:39:18;0.40;;;0.30;;
579;SDS011;276;48.392;9.950;2023-05-10T02:41:45;0.43;;;0.40;;
579;SDS011;276;48.392;9.950;2023-05-10T02:44:14;0.60;;;0.40;;
579;SDS011;276;48.392;9.950;2023-05-10T02:46:42;0.87;;;0.87;;
579;SDS011;276;48.392;9.950;2023-05-10T02:49:10;0.50;;;0.40;;
579;SDS011;276;48.392;9.950;2023-05-10T02:51:37;0.70;;;0.30;;
579;SDS011;276;48.392;9.950;2023-05-10T02:54:11;0.40;;;0.33;;
579;SDS011;276;48.392;9.950;2023-05-10T02:56:45;1.80;;;0.40;;
579;SDS011;276;48.392;9.950;2023-05-10T02:59:16;0.50;;;0.40;;
579;SDS011;276;48.392;9.950;2023-05-10T03:01:41;0.40;;;0.30;;
579;SDS011;276;48.392;9.950;2023-05-10T03:04:07;0.40;;;0.30;;
579;SDS011;276;48.392;9.950;2023-05-10T03:06:33;2.80;;;0.40;;
579;SDS011;276;48.392;9.950;2023-05-10T03:09:01;0.30;;;0.20;;
579;SDS011;276;48.392;9.950;2023-05-10T03:11:31;0.40;;;0.30;;
579;SDS011;276;48.392;9.950;2023-05-10T03:17:15;0.30;;;0.30;;
579;SDS011;276;48.392;9.950;2023-05-10T03:22:30;0.40;;;0.30;;
579;SDS011;276;48.392;9.950;2023-05-10T03:24:59;0.40;;;0.30;;
579;SDS011;276;48.392;9.950;2023-05-10T03:27:29;2.80;;;0.60;;
579;SDS011;276;48.392;9.950;2023-05-10T03:29:57;0.70;;;0.30;;
579;SDS011;276;48.392;9.950;2023-05-10T03:32:23;0.50;;;0.50;;
579;SDS011;276;48.392;9.950;2023-05-10T03:34:49;0.40;;;0.30;;
579;SDS011;276;48.392;9.950;2023-05-10T03:37:14;1.33;;;0.50;;
579;SDS011;276;48.392;9.950;2023-05-10T03:39:40;0.53;;;0.40;;
579;SDS011;276;48.392;9.950;2023-05-10T03:42:05;2.30;;;0.47;;
579;SDS011;276;48.392;9.950;2023-05-10T03:44:36;0.60;;;0.43;;
579;SDS011;276;48.392;9.950;2023-05-10T03:47:05;0.60;;;0.43;;
579;SDS011;276;48.392;9.950;2023-05-10T03:49:31;0.93;;;0.50;;
579;SDS011;276;48.392;9.950;2023-05-10T03:51:57;0.50;;;0.40;;
579;SDS011;276;48.392;9.950;2023-05-10T03:54:22;2.10;;;0.40;;
579;SDS011;276;48.392;9.950;2023-05-10T03:56:51;0.50;;;0.50;;
579;SDS011;276;48.392;9.950;2023-05-10T03:59:19;0.50;;;0.40;;
579;SDS011;276;48.392;9.950;2023-05-10T04:01:44;2.30;;;0.40;;
579;SDS011;276;48.392;9.950;2023-05-10T04:04:10;0.60;;;0.60;;
579;SDS011;276;48.392;9.950;2023-05-10T04:06:38;1.07;;;0.50;;
579;SDS011;276;48.392;9.950;2023-05-10T04:09:04;0.93;;;0.57;;
579;SDS011;276;48.392;9.950;2023-05-10T04:11:31;0.43;;;0.40;;
579;SDS011;276;48.392;9.950;2023-05-10T04:13:57;0.40;;;0.40;;
579;SDS011;276;48.392;9.950;2023-05-10T04:16:25;2.70;;;2.50;;
579;SDS011;276;48.392;9.950;2023-05-10T04:18:50;5.60;;;4.17;;
579;SDS011;276;48.392;9.950;2023-05-10T04:21:16;3.23;;;3.00;;
579;SDS011;276;48.392;9.950;2023-05-10T04:23:41;2.40;;;1.40;;
579;SDS011;276;48.392;9.950;2023-05-10T04:26:09;4.10;;;1.63;;
579;SDS011;276;48.392;9.950;2023-05-10T04:28:37;4.83;;;0.93;;
579;SDS011;276;48.392;9.950;2023-05-10T04:31:05;0.90;;;0.90;;
579;SDS011;276;48.392;9.950;2023-05-10T04:33:32;1.43;;;1.10;;
579;SDS011;276;48.392;9.950;2023-05-10T04:36:01;0.80;;;0.80;;
579;SDS011;276;48.392;9.950;2023-05-10T04:38:27;1.50;;;1.40;;
579;SDS011;276;48.392;9.950;2023-05-10T04:40:53;3.07;;;2.50;;
579;SDS011;276;48.392;9.950;2023-05-10T04:43:19;2.23;;;2.00;;
579;SDS011;276;48.392;9.950;2023-05-10T04:45:49;3.10;;;1.67;;
579;SDS011;276;48.392;9.950;2023-05-10T04:48:15;1.70;;;1.60;;
579;SDS011;276;48.392;9.950;2023-05-10T04:50:43;2.70;;;2.50;;
579;SDS011;276;48.392;9.950;2023-05-10T04:53:11;3.97;;;3.07;;
579;SDS011;276;48.392;9.950;2023-05-10T04:55:36;2.80;;;2.50;;
579;SDS011;276;48.392;9.950;2023-05-10T04:58:02;3.97;;;3.63;;
579;SDS011;276;48.392;9.950;2023-05-10T05:00:27;4.03;;;3.70;;
579;SDS011;276;48.392;9.950;2023-05-10T05:02:55;1.43;;;1.33;;
579;SDS011;276;48.392;9.950;2023-05-10T05:05:21;3.53;;;2.47;;
579;SDS011;276;48.392;9.950;2023-05-10T05:07:46;5.20;;;4.67;;
579;SDS011;276;48.392;9.950;2023-05-10T05:10:12;6.27;;;5.13;;
579;SDS011;276;48.392;9.950;2023-05-10T05:12:38;1.87;;;1.70;;
579;SDS011;276;48.392;9.950;2023-05-10T05:15:04;5.70;;;5.20;;
579;SDS011;276;48.392;9.950;2023-05-10T05:17:30;3.50;;;2.37;;
579;SDS011;276;48.392;9.950;2023-05-10T05:19:56;3.10;;;1.50;;
579;SDS011;276;48.392;9.950;2023-05-10T05:22:22;1.00;;;0.90;;
579;SDS011;276;48.392;9.950;2023-05-10T05:24:56;1.77;;;1.37;;
579;SDS011;276;48.392;9.950;2023-05-10T05:27:25;1.53;;;1.27;;
579;SDS011;276;48.392;9.950;2023-05-10T05:29:53;2.33;;;1.63;;
579;SDS011;276;48.392;9.950;2023-05-10T05:32:22;1.40;;;1.30;;
579;SDS011;276;48.392;9.950;2023-05-10T05:34:50;2.20;;;1.13;;
579;SDS011;276;48.392;9.950;2023-05-10T05:37:17;1.53;;;1.07;;
579;SDS011;276;48.392;9.950;2023-05-10T05:39:46;1.67;;;1.57;;
579;SDS011;276;48.392;9.950;2023-05-10T05:42:12;1.50;;;1.30;;
579;SDS011;276;48.392;9.950;2023-05-10T05:44:41;1.27;;;1.07;;
579;SDS011;276;48.392;9.950;2023-05-10T05:47:12;1.93;;;1.27;;
579;SDS011;276;48.392;9.950;2023-05-10T05:49:39;1.53;;;1.27;;
579;SDS011;276;48.392;9.950;2023-05-10T05:52:05;3.10;;;1.47;;
579;SDS011;276;48.392;9.950;2023-05-10T05:54:31;1.60;;;1.47;;
579;SDS011;276;48.392;9.950;2023-05-10T05:56:59;1.40;;;1.27;;
579;SDS011;276;48.392;9.950;2023-05-10T05:59:25;2.90;;;2.13;;
579;SDS011;276;48.392;9.950;2023-05-10T06:01:51;3.50;;;2.43;;
579;SDS011;276;48.392;9.950;2023-05-10T06:04:17;0.73;;;0.73;;
579;SDS011;276;48.392;9.950;2023-05-10T06:06:43;1.43;;;1.13;;
579;SDS011;276;48.392;9.950;2023-05-10T06:09:09;1.87;;;1.20;;
579;SDS011;276;48.392;9.950;2023-05-10T06:11:35;1.77;;;1.53;;
579;SDS011;276;48.392;9.950;2023-05-10T06:14:04;1.67;;;1.10;;
579;SDS011;276;48.392;9.950;2023-05-10T06:16:31;1.63;;;1.10;;
579;SDS011;276;48.392;9.950;2023-05-10T06:19:02;1.30;;;1.20;;
579;SDS011;276;48.392;9.950;2023-05-10T06:21:28;2.63;;;1.37;;
579;SDS011;276;48.392;9.950;2023-05-10T06:23:53;3.90;;;2.60;;
579;SDS011;276;48.392;9.950;2023-05-10T06:26:19;2.33;;;2.13;;
579;SDS011;276;48.392;9.950;2023-05-10T06:28:45;1.40;;;1.30;;
579;SDS011;276;48.392;9.950;2023-05-10T06:31:13;1.90;;;1.30;;
579;SDS011;276;48.392;9.950;2023-05-10T06:33:39;4.00;;;1.23;;
579;SDS011;276;48.392;9.950;2023-05-10T06:36:05;1.60;;;1.50;;
579;SDS011;276;48.392;9.950;2023-05-10T06:38:30;1.50;;;1.40;;
579;SDS011;276;48.392;9.950;2023-05-10T06:40:58;2.57;;;2.03;;
579;SDS011;276;48.392;9.950;2023-05-10T06:43:24;1.80;;;1.30;;
579;SDS011;276;48.392;9.950;2023-05-10T06:45:53;2.33;;;1.83;;
579;SDS011;276;48.392;9.950;2023-05-10T06:48:19;3.20;;;2.53;;
579;SDS011;276;48.392;9.950;2023-05-10T06:50:44;4.03;;;1.70;;
579;SDS011;276;48.392;9.950;2023-05-10T06:53:10;1.47;;;1.37;;
579;SDS011;276;48.392;9.950;2023-05-10T06:55:38;1.70;;;1.50;;
579;SDS011;276;48.392;9.950;2023-05-10T06:58:04;2.23;;;1.50;;
579;SDS011;276;48.392;9.950;2023-05-10T07:00:33;3.03;;;1.90;;
579;SDS011;276;48.392;9.950;2023-05-10T07:03:04;1.33;;;1.23;;
579;SDS011;276;48.392;9.950;2023-05-10T07:05:29;1.90;;;1.80;;
579;SDS011;276;48.392;9.950;2023-05-10T07:07:55;5.07;;;4.10;;
579;SDS011;276;48.392;9.950;2023-05-10T07:10:23;4.17;;;2.37;;
579;SDS011;276;48.392;9.950;2023-05-10T07:12:49;2.20;;;1.53;;
579;SDS011;276;48.392;9.950;2023-05-10T07:15:15;3.07;;;1.43;;
579;SDS011;276;48.392;9.950;2023-05-10T07:17:40;1.40;;;1.30;;
579;SDS011;276;48.392;9.950;2023-05-10T07:20:06;9.10;;;2.07;;
579;SDS011;276;48.392;9.950;2023-05-10T07:22:37;1.30;;;1.20;;
579;SDS011;276;48.392;9.950;2023-05-10T07:25:03;2.00;;;1.80;;
579;SDS011;276;48.392;9.950;2023-05-10T07:27:28;2.90;;;2.33;;
579;SDS011;276;48.392;9.950;2023-05-10T07:29:56;2.00;;;1.80;;
579;SDS011;276;48.392;9.950;2023-05-10T07:32:27;2.47;;;2.00;;
579;SDS011;276;48.392;9.950;2023-05-10T07:34:53;1.97;;;1.60;;
579;SDS011;276;48.392;9.950;2023-05-10T07:37:18;3.07;;;2.27;;
579;SDS011;276;48.392;9.950;2023-05-10T07:39:46;2.93;;;2.57;;
579;SDS011;276;48.392;9.950;2023-05-10T07:42:14;3.50;;;2.53;;
579;SDS011;276;48.392;9.950;2023-05-10T07:44:40;2.97;;;1.93;;
579;SDS011;276;48.392;9.950;2023-05-10T07:47:06;3.37;;;2.40;;
579;SDS011;276;48.392;9.950;2023-05-10T07:49:32;2.20;;;1.90;;
579;SDS011;276;48.392;9.950;2023-05-10T07:52:00;3.13;;;2.13;;
579;SDS011;276;48.392;9.950;2023-05-10T07:54:27;4.80;;;2.60;;
579;SDS011;276;48.392;9.950;2023-05-10T07:56:53;7.10;;;4.53;;
579;SDS011;276;48.392;9.950;2023-05-10T07:59:18;8.30;;;2.73;;
579;SDS011;276;48.392;9.950;2023-05-10T08:01:45;6.27;;;3.70;;
579;SDS011;276;48.392;9.950;2023-05-10T08:04:11;7.17;;;4.40;;
579;SDS011;276;48.392;9.950;2023-05-10T08:06:37;5.23;;;3.23;;
579;SDS011;276;48.392;9.950;2023-05-10T08:09:05;4.40;;;3.07;;
579;SDS011;276;48.392;9.950;2023-05-10T08:11:31;8.87;;;6.03;;
579;SDS011;276;48.392;9.950;2023-05-10T08:13:56;10.77;;;7.47;;
579;SDS011;276;48.392;9.950;2023-05-10T08:16:27;4.07;;;3.30;;
579;SDS011;276;48.392;9.950;2023-05-10T08:18:53;1.90;;;1.73;;
579;SDS011;276;48.392;9.950;2023-05-10T08:21:20;2.27;;;1.77;;
579;SDS011;276;48.392;9.950;2023-05-10T08:23:48;1.90;;;1.80;;
579;SDS011;276;48.392;9.950;2023-05-10T08:26:16;2.30;;;1.97;;
579;SDS011;276;48.392;9.950;2023-05-10T08:28:44;1.30;;;1.20;;
579;SDS011;276;48.392;9.950;2023-05-10T08:31:09;1.60;;;0.90;;
579;SDS011;276;48.392;9.950;2023-05-10T08:33:37;2.70;;;1.00;;
579;SDS011;276;48.392;9.950;2023-05-10T08:36:02;1.30;;;1.20;;
579;SDS011;276;48.392;9.950;2023-05-10T08:38:28;1.03;;;1.03;;
579;SDS011;276;48.392;9.950;2023-05-10T08:40:55;1.40;;;1.03;;
579;SDS011;276;48.392;9.950;2023-05-10T08:43:26;2.10;;;1.33;;
579;SDS011;276;48.392;9.950;2023-05-10T08:45:55;0.90;;;0.90;;
579;SDS011;276;48.392;9.950;2023-05-10T08:48:24;1.33;;;1.23;;
579;SDS011;276;48.392;9.950;2023-05-10T08:50:50;1.10;;;1.00;;
579;SDS011;276;48.392;9.950;2023-05-10T08:53:21;1.17;;;1.07;;
579;SDS011;276;48.392;9.950;2023-05-10T08:55:50;1.23;;;1.00;;
579;SDS011;276;48.392;9.950;2023-05-10T08:58:16;0.90;;;0.90;;
579;SDS011;276;48.392;9.950;2023-05-10T09:00:44;0.73;;;0.70;;
579;SDS011;276;48.392;9.950;2023-05-10T09:03:11;0.63;;;0.63;;
579;SDS011;276;48.392;9.950;2023-05-10T09:05:40;1.50;;;0.80;;
579;SDS011;276;48.392;9.950;2023-05-10T09:08:06;0.93;;;0.90;;
579;SDS011;276;48.392;9.950;2023-05-10T09:10:35;1.23;;;0.80;;
579;SDS011;276;48.392;9.950;2023-05-10T09:13:03;3.20;;;0.93;;
579;SDS011;276;48.392;9.950;2023-05-10T09:15:29;0.70;;;0.70;;
579;SDS011;276;48.392;9.950;2023-05-10T09:17:57;1.17;;;0.97;;
579;SDS011;276;48.392;9.950;2023-05-10T09:20:27;0.90;;;0.70;;
579;SDS011;276;48.392;9.950;2023-05-10T09:22:55;2.27;;;2.07;;
579;SDS011;276;48.392;9.950;2023-05-10T09:25:21;2.00;;;1.83;;
579;SDS011;276;48.392;9.950;2023-05-10T09:27:47;1.27;;;1.17;;
579;SDS011;276;48.392;9.950;2023-05-10T09:30:23;1.20;;;1.10;;
579;SDS011;276;48.392;9.950;2023-05-10T09:32:53;2.30;;;1.20;;
579;SDS011;276;48.392;9.950;2023-05-10T09:35:23;0.60;;;0.50;;
579;SDS011;276;48.392;9.950;2023-05-10T09:37:51;0.87;;;0.60;;
579;SDS011;276;48.392;9.950;2023-05-10T09:40:23;1.97;;;0.70;;
579;SDS011;276;48.392;9.950;2023-05-10T09:45:29;2.10;;;0.80;;
579;SDS011;276;48.392;9.950;2023-05-10T09:47:56;0.80;;;0.60;;
579;SDS011;276;48.392;9.950;2023-05-10T09:50:22;1.03;;;0.80;;
579;SDS011;276;48.392;9.950;2023-05-10T09:55:15;0.60;;;0.60;;
579;SDS011;276;48.392;9.950;2023-05-10T09:57:41;0.97;;;0.50;;
579;SDS011;276;48.392;9.950;2023-05-10T10:00:07;0.53;;;0.50;;
579;SDS011;276;48.392;9.950;2023-05-10T10:02:34;0.70;;;0.70;;
579;SDS011;276;48.392;9.950;2023-05-10T10:05:03;0.93;;;0.67;;
579;SDS011;276;48.392;9.950;2023-05-10T10:07:29;2.43;;;0.80;;
579;SDS011;276;48.392;9.950;2023-05-10T10:09:54;0.70;;;0.50;;
579;SDS011;276;48.392;9.950;2023-05-10T10:12:20;0.80;;;0.60;;
579;SDS011;276;48.392;9.950;2023-05-10T10:14:48;1.17;;;0.50;;
579;SDS011;276;48.392;9.950;2023-05-10T10:17:18;0.50;;;0.50;;
579;SDS011;276;48.392;9.950;2023-05-10T10:19:45;1.37;;;0.60;;
579;SDS011;276;48.392;9.950;2023-05-10T10:22:16;0.40;;;0.33;;
579;SDS011;276;48.392;9.950;2023-05-10T10:24:42;1.13;;;0.57;;
579;SDS011;276;48.392;9.950;2023-05-10T10:27:24;1.63;;;0.60;;
579;SDS011;276;48.392;9.950;2023-05-10T10:35:38;0.73;;;0.53;;
579;SDS011;276;48.392;9.950;2023-05-10T10:38:08;0.50;;;0.40;;
579;SDS011;276;48.392;9.950;2023-05-10T10:40:34;0.70;;;0.60;;
579;SDS011;276;48.392;9.950;2023-05-10T10:46:11;0.60;;;0.60;;
579;SDS011;276;48.392;9.950;2023-05-10T10:48:47;0.50;;;0.40;;
579;SDS011;276;48.392;9.950;2023-05-10T10:51:32;1.90;;;0.60;;
579;SDS011;276;48.392;9.950;2023-05-10T10:54:09;0.47;;;0.47;;
579;SDS011;276;48.392;9.950;2023-05-10T10:56:35;0.50;;;0.50;;
579;SDS011;276;48.392;9.950;2023-05-10T10:59:00;0.40;;;0.40;;
579;SDS011;276;48.392;9.950;2023-05-10T11:01:26;2.17;;;0.67;;
579;SDS011;276;48.392;9.950;2023-05-10T11:06:32;1.33;;;0.70;;
579;SDS011;276;48.392;9.950;2023-05-10T11:09:07;1.43;;;0.57;;
579;SDS011;276;48.392;9.950;2023-05-10T11:11:34;0.80;;;0.63;;
579;SDS011;276;48.392;9.950;2023-05-10T11:14:04;0.77;;;0.77;;
579;SDS011;276;48.392;9.950;2023-05-10T11:16:41;0.50;;;0.50;;
579;SDS011;276;48.392;9.950;2023-05-10T11:19:11;0.73;;;0.73;;
579;SDS011;276;48.392;9.950;2023-05-10T11:21:48;0.80;;;0.80;;
579;SDS011;276;48.392;9.950;2023-05-10T11:24:56;0.63;;;0.50;;
579;SDS011;276;48.392;9.950;2023-05-10T11:27:25;0.60;;;0.60;;
579;SDS011;276;48.392;9.950;2023-05-10T11:29:53;0.80;;;0.50;;
579;SDS011;276;48.392;9.950;2023-05-10T11:32:19;0.47;;;0.40;;
579;SDS011;276;48.392;9.950;2023-05-10T11:34:47;0.60;;;0.60;;
579;SDS011;276;48.392;9.950;2023-05-10T11:37:13;0.80;;;0.63;;
579;SDS011;276;48.392;9.950;2023-05-10T11:39:45;5.60;;;1.20;;
579;SDS011;276;48.392;9.950;2023-05-10T11:42:12;2.73;;;1.00;;
579;SDS011;276;48.392;9.950;2023-05-10T11:44:38;3.10;;;1.03;;
579;SDS011;276;48.392;9.950;2023-05-10T11:47:03;3.50;;;1.07;;
579;SDS011;276;48.392;9.950;2023-05-10T11:49:30;0.80;;;0.60;;
579;SDS011;276;48.392;9.950;2023-05-10T11:52:10;0.70;;;0.60;;
579;SDS011;276;48.392;9.950;2023-05-10T11:54:44;3.17;;;1.00;;
579;SDS011;276;48.392;9.950;2023-05-10T11:57:19;1.37;;;1.27;;
579;SDS011;276;48.392;9.950;2023-05-10T11:59:46;1.57;;;0.70;;
579;SDS011;276;48.392;9.950;2023-05-10T12:02:13;1.20;;;1.10;;
579;SDS011;276;48.392;9.950;2023-05-10T12:04:39;0.80;;;0.50;;
579;SDS011;276;48.392;9.950;2023-05-10T12:07:07;0.80;;;0.73;;
579;SDS011;276;48.392;9.950;2023-05-10T12:09:33;1.10;;;0.80;;
579;SDS011;276;48.392;9.950;2023-05-10T12:11:58;0.87;;;0.50;;
579;SDS011;276;48.392;9.950;2023-05-10T12:14:24;0.60;;;0.50;;
579;SDS011;276;48.392;9.950;2023-05-10T12:16:52;0.50;;;0.40;;
579;SDS011;276;48.392;9.950;2023-05-10T12:19:20;0.60;;;0.50;;
579;SDS011;276;48.392;9.950;2023-05-10T12:21:46;1.20;;;0.73;;
579;SDS011;276;48.392;9.950;2023-05-10T12:24:14;1.00;;;0.53;;
579;SDS011;276;48.392;9.950;2023-05-10T12:26:42;0.60;;;0.60;;
579;SDS011;276;48.392;9.950;2023-05-10T12:29:13;1.60;;;0.60;;
579;SDS011;276;48.392;9.950;2023-05-10T12:31:53;0.83;;;0.60;;
579;SDS011;276;48.392;9.950;2023-05-10T12:34:40;0.80;;;0.67;;
579;SDS011;276;48.392;9.950;2023-05-10T12:37:11;0.60;;;0.60;;
579;SDS011;276;48.392;9.950;2023-05-10T12:39:41;0.80;;;0.80;;
579;SDS011;276;48.392;9.950;2023-05-10T12:42:11;1.07;;;0.80;;
579;SDS011;276;48.392;9.950;2023-05-10T12:44:39;4.33;;;0.90;;
579;SDS011;276;48.392;9.950;2023-05-10T12:47:05;1.37;;;0.90;;
579;SDS011;276;48.392;9.950;2023-05-10T12:49:33;0.90;;;0.83;;
579;SDS011;276;48.392;9.950;2023-05-10T12:51:58;0.73;;;0.73;;
579;SDS011;276;48.392;9.950;2023-05-10T12:54:24;0.70;;;0.70;;
579;SDS011;276;48.392;9.950;2023-05-10T12:56:50;1.70;;;0.83;;
579;SDS011;276;48.392;9.950;2023-05-10T12:59:15;0.90;;;0.90;;
579;SDS011;276;48.392;9.950;2023-05-10T13:01:41;0.97;;;0.90;;
579;SDS011;276;48.392;9.950;2023-05-10T13:04:06;1.37;;;1.23;;
579;SDS011;276;48.392;9.950;2023-05-10T13:06:32;1.93;;;1.23;;
579;SDS011;276;48.392;9.950;2023-05-10T13:09:00;1.07;;;0.77;;
579;SDS011;276;48.392;9.950;2023-05-10T13:11:25;0.90;;;0.57;;
579;SDS011;276;48.392;9.950;2023-05-10T13:13:51;2.00;;;1.10;;
579;SDS011;276;48.392;9.950;2023-05-10T13:16:17;0.93;;;0.93;;
579;SDS011;276;48.392;9.950;2023-05-10T13:18:44;1.07;;;1.07;;
579;SDS011;276;48.392;9.950;2023-05-10T13:21:10;4.30;;;1.10;;
579;SDS011;276;48.392;9.950;2023-05-10T13:23:36;1.30;;;1.00;;
579;SDS011;276;48.392;9.950;2023-05-10T13:26:01;1.37;;;0.97;;
579;SDS011;276;48.392;9.950;2023-05-10T13:28:27;1.07;;;0.73;;
579;SDS011;276;48.392;9.950;2023-05-10T13:30:53;2.03;;;0.93;;
579;SDS011;276;48.392;9.950;2023-05-10T13:33:18;2.10;;;0.83;;
579;SDS011;276;48.392;9.950;2023-05-10T13:35:44;1.90;;;1.17;;
579;SDS011;276;48.392;9.950;2023-05-10T13:38:10;1.90;;;0.97;;
579;SDS011;276;48.392;9.950;2023-05-10T13:40:38;0.83;;;0.80;;
579;SDS011;276;48.392;9.950;2023-05-10T13:43:06;0.70;;;0.70;;
579;SDS011;276;48.392;9.950;2023-05-10T13:45:32;0.80;;;0.63;;
579;SDS011;276;48.392;9.950;2023-05-10T13:48:00;1.07;;;0.97;;
579;SDS011;276;48.392;9.950;2023-05-10T13:50:26;0.97;;;0.83;;
579;SDS011;276;48.392;9.950;2023-05-10T13:52:53;0.83;;;0.60;;
579;SDS011;276;48.392;9.950;2023-05-10T13:55:19;1.73;;;0.80;;
579;SDS011;276;48.392;9.950;2023-05-10T13:57:45;1.73;;;0.90;;
579;SDS011;276;48.392;9.950;2023-05-10T14:00:10;0.83;;;0.67;;
579;SDS011;276;48.392;9.950;2023-05-10T14:02:36;1.20;;;1.10;;
579;SDS011;276;48.392;9.950;2023-05-10T14:05:04;1.10;;;1.00;;
579;SDS011;276;48.392;9.950;2023-05-10T14:07:32;0.70;;;0.70;;
579;SDS011;276;48.392;9.950;2023-05-10T14:09:58;1.33;;;1.00;;
579;SDS011;276;48.392;9.950;2023-05-10T14:12:27;1.60;;;1.00;;
579;SDS011;276;48.392;9.950;2023-05-10T14:14:52;1.53;;;1.07;;
579;SDS011;276;48.392;9.950;2023-05-10T14:17:18;2.37;;;1.37;;
579;SDS011;276;48.392;9.950;2023-05-10T14:19:44;1.10;;;1.00;;
579;SDS011;276;48.392;9.950;2023-05-10T14:22:09;0.70;;;0.70;;
579;SDS011;276;48.392;9.950;2023-05-10T14:24:35;2.47;;;1.47;;
579;SDS011;276;48.392;9.950;2023-05-10T14:27:01;0.80;;;0.80;;
579;SDS011;276;48.392;9.950;2023-05-10T14:29:26;1.63;;;1.00;;
579;SDS011;276;48.392;9.950;2023-05-10T14:31:54;1.80;;;0.97;;
579;SDS011;276;48.392;9.950;2023-05-10T14:34:25;1.37;;;1.27;;
579;SDS011;276;48.392;9.950;2023-05-10T14:36:55;1.87;;;0.97;;
579;SDS011;276;48.392;9.950;2023-05-10T14:39:20;1.10;;;1.00;;
579;SDS011;276;48.392;9.950;2023-05-10T14:41:47;0.90;;;0.90;;
579;SDS011;276;48.392;9.950;2023-05-10T14:44:13;4.67;;;1.17;;
579;SDS011;276;48.392;9.950;2023-05-10T14:46:40;1.03;;;1.03;;
579;SDS011;276;48.392;9.950;2023-05-10T14:49:06;1.50;;;0.97;;
579;SDS011;276;48.392;9.950;2023-05-10T14:51:32;1.43;;;1.03;;
579;SDS011;276;48.392;9.950;2023-05-10T14:53:58;4.37;;;1.47;;
579;SDS011;276;48.392;9.950;2023-05-10T14:56:26;3.20;;;1.27;;
579;SDS011;276;48.392;9.950;2023-05-10T14:58:52;1.73;;;1.10;;
579;SDS011;276;48.392;9.950;2023-05-10T15:01:18;1.63;;;1.10;;
579;SDS011;276;48.392;9.950;2023-05-10T15:03:46;1.23;;;1.13;;
579;SDS011;276;48.392;9.950;2023-05-10T15:06:13;1.07;;;1.07;;
579;SDS011;276;48.392;9.950;2023-05-10T15:08:39;1.13;;;1.00;;
579;SDS011;276;48.392;9.950;2023-05-10T15:11:05;1.17;;;1.07;;
579;SDS011;276;48.392;9.950;2023-05-10T15:13:30;3.03;;;1.03;;
579;SDS011;276;48.392;9.950;2023-05-10T15:15:58;1.40;;;1.30;;
579;SDS011;276;48.392;9.950;2023-05-10T15:18:24;0.70;;;0.70;;
579;SDS011;276;48.392;9.950;2023-05-10T15:20:49;1.10;;;1.00;;
579;SDS011;276;48.392;9.950;2023-05-10T15:23:15;1.10;;;0.93;;
579;SDS011;276;48.392;9.950;2023-05-10T15:25:40;4.33;;;1.90;;
579;SDS011;276;48.392;9.950;2023-05-10T15:28:08;3.20;;;1.17;;
579;SDS011;276;48.392;9.950;2023-05-10T15:30:36;1.37;;;1.17;;
579;SDS011;276;48.392;9.950;2023-05-10T15:33:04;2.13;;;1.30;;
579;SDS011;276;48.392;9.950;2023-05-10T15:35:30;4.47;;;2.13;;
579;SDS011;276;48.392;9.950;2023-05-10T15:37:58;4.27;;;1.70;;
579;SDS011;276;48.392;9.950;2023-05-10T15:40:23;2.40;;;1.70;;
579;SDS011;276;48.392;9.950;2023-05-10T15:42:49;1.43;;;1.33;;
579;SDS011;276;48.392;9.950;2023-05-10T15:45:17;1.87;;;1.77;;
579;SDS011;276;48.392;9.950;2023-05-10T15:47:45;5.50;;;2.40;;
579;SDS011;276;48.392;9.950;2023-05-10T15:50:11;2.43;;;1.83;;
579;SDS011;276;48.392;9.950;2023-05-10T15:52:36;3.00;;;2.10;;
579;SDS011;276;48.392;9.950;2023-05-10T15:55:02;3.37;;;2.17;;
579;SDS011;276;48.392;9.950;2023-05-10T15:57:28;3.77;;;2.50;;
579;SDS011;276;48.392;9.950;2023-05-10T15:59:56;5.37;;;4.87;;
579;SDS011;276;48.392;9.950;2023-05-10T16:02:22;6.23;;;4.63;;
579;SDS011;276;48.392;9.950;2023-05-10T16:04:52;5.83;;;5.37;;
579;SDS011;276;48.392;9.950;2023-05-10T16:07:20;3.40;;;3.20;;
579;SDS011;276;48.392;9.950;2023-05-10T16:09:46;3.63;;;3.43;;
579;SDS011;276;48.392;9.950;2023-05-10T16:12:14;3.33;;;2.13;;
579;SDS011;276;48.392;9.950;2023-05-10T16:14:42;3.70;;;2.10;;
579;SDS011;276;48.392;9.950;2023-05-10T16:17:10;2.63;;;2.43;;
579;SDS011;276;48.392;9.950;2023-05-10T16:19:41;2.97;;;2.30;;
579;SDS011;276;48.392;9.950;2023-05-10T16:22:06;2.73;;;2.40;;
579;SDS011;276;48.392;9.950;2023-05-10T16:24:32;2.60;;;2.40;;
579;SDS011;276;48.392;9.950;2023-05-10T16:26:57;4.83;;;3.80;;
579;SDS011;276;48.392;9.950;2023-05-10T16:29:23;2.93;;;2.60;;